createdAt,value
2022-11-01T00:00:33.478Z,7.63
2022-11-01T00:03:00.314Z,7.43
2022-11-01T00:05:27.080Z,6.53
2022-11-01T00:08:00.834Z,6.05
2022-11-01T00:10:27.910Z,6.43
2022-11-01T00:13:01.773Z,5.80
2022-11-01T00:15:28.786Z,6.50
2022-11-01T00:17:56.405Z,6.57
2022-11-01T00:20:29.568Z,6.95
2022-11-01T00:23:02.718Z,6.22
2022-11-01T00:25:29.906Z,7.22
2022-11-01T00:28:03.841Z,7.07
2022-11-01T00:30:30.883Z,6.97
2022-11-01T00:33:04.541Z,6.45
2022-11-01T00:35:38.627Z,7.25
2022-11-01T00:38:14.540Z,6.60
2022-11-01T00:40:48.536Z,6.38
2022-11-01T00:43:16.068Z,6.43
2022-11-01T00:45:46.243Z,6.78
2022-11-01T00:48:19.514Z,6.50
2022-11-01T00:50:52.549Z,5.93
2022-11-01T00:53:25.741Z,6.70
2022-11-01T00:55:59.567Z,6.60
2022-11-01T00:58:26.371Z,6.68
2022-11-01T01:00:59.620Z,6.60
2022-11-01T01:03:32.589Z,6.70
2022-11-01T01:06:05.577Z,6.28
2022-11-01T01:08:38.607Z,5.85
2022-11-01T01:11:07.508Z,6.40
2022-11-01T01:13:34.371Z,6.35
2022-11-01T01:16:07.576Z,5.32
2022-11-01T01:18:40.588Z,5.90
2022-11-01T01:21:07.401Z,5.47
2022-11-01T01:23:40.599Z,5.45
2022-11-01T01:26:08.890Z,6.47
2022-11-01T01:28:40.254Z,6.05
2022-11-01T01:31:19.595Z,5.75
2022-11-01T01:33:46.368Z,5.80
2022-11-01T01:36:24.698Z,5.97
2022-11-01T01:38:59.626Z,6.00
2022-11-01T01:41:45.195Z,5.82
2022-11-01T01:44:56.629Z,6.13
2022-11-01T01:47:33.606Z,6.45
2022-11-01T01:50:03.117Z,6.32
2022-11-01T01:52:41.645Z,6.05
2022-11-01T01:55:10.112Z,6.75
2022-11-01T01:57:44.636Z,5.80
2022-11-01T02:00:18.629Z,6.38
2022-11-01T02:02:51.697Z,6.32
2022-11-01T02:05:36.462Z,6.05
2022-11-01T02:08:12.661Z,5.68
2022-11-01T02:10:40.857Z,5.55
2022-11-01T02:13:19.718Z,5.78
2022-11-01T02:16:12.241Z,6.00
2022-11-01T02:19:10.701Z,6.60
2022-11-01T02:22:06.477Z,5.57
2022-11-01T02:24:45.709Z,5.32
2022-11-01T02:27:15.530Z,5.07
2022-11-01T02:30:08.682Z,5.90
2022-11-01T02:33:23.726Z,5.05
2022-11-01T02:35:59.508Z,5.57
2022-11-01T02:38:55.705Z,5.60
2022-11-01T02:41:27.090Z,5.18
2022-11-01T02:44:09.737Z,5.20
2022-11-01T02:46:58.516Z,5.20
2022-11-01T02:49:44.814Z,4.80
2022-11-01T02:52:23.768Z,5.35
2022-11-01T02:55:02.752Z,5.65
2022-11-01T02:57:41.215Z,5.32
2022-11-01T03:00:31.752Z,5.30
2022-11-01T03:03:13.472Z,5.18
2022-11-01T03:06:03.767Z,5.90
2022-11-01T03:08:44.910Z,5.18
2022-11-01T03:11:39.775Z,4.88
2022-11-01T03:14:55.816Z,4.78
2022-11-01T03:17:50.810Z,4.43
2022-11-01T03:20:49.437Z,3.95
2022-11-01T03:23:29.820Z,3.38
2022-11-01T03:26:05.690Z,3.22
2022-11-01T03:29:11.795Z,3.60
2022-11-01T03:31:40.889Z,3.15
2022-11-01T03:34:22.786Z,2.88
2022-11-01T03:36:57.720Z,3.03
2022-11-01T03:39:39.804Z,2.55
2022-11-01T03:42:18.986Z,2.10
2022-11-01T03:44:56.814Z,1.83
2022-11-01T03:47:23.626Z,1.30
2022-11-01T03:50:20.905Z,1.05
2022-11-01T03:52:48.161Z,1.10
2022-11-01T03:55:25.858Z,1.35
2022-11-01T03:57:59.740Z,1.50
2022-11-01T04:00:40.825Z,1.98
2022-11-01T04:03:12.040Z,1.40
2022-11-01T04:05:47.857Z,1.25
2022-11-01T04:08:21.550Z,1.20
2022-11-01T04:10:48.353Z,1.50
2022-11-01T04:13:21.848Z,1.58
2022-11-01T04:16:07.425Z,1.35
2022-11-01T04:18:58.938Z,1.17
2022-11-01T04:21:26.768Z,1.30
2022-11-01T04:24:06.871Z,1.30
2022-11-01T04:26:34.355Z,1.45
2022-11-01T04:29:01.126Z,1.52
2022-11-01T04:31:42.895Z,1.05
2022-11-01T04:34:09.862Z,1.00
2022-11-01T04:36:38.382Z,1.00
2022-11-01T04:39:11.947Z,1.10
2022-11-01T04:41:38.709Z,1.00
2022-11-01T04:44:05.435Z,1.10
2022-11-01T04:46:38.901Z,0.95
2022-11-01T04:49:05.615Z,0.90
2022-11-01T04:51:32.579Z,1.05
2022-11-01T04:54:06.033Z,1.10
2022-11-01T04:56:39.899Z,1.00
2022-11-01T04:59:07.346Z,1.50
2022-11-01T05:01:40.973Z,1.20
2022-11-01T05:04:13.910Z,1.30
2022-11-01T05:06:47.003Z,1.58
2022-11-01T05:09:13.762Z,1.50
2022-11-01T05:11:46.935Z,0.93
2022-11-01T05:14:13.758Z,1.00
2022-11-01T05:16:46.936Z,1.00
2022-11-01T05:19:19.958Z,1.00
2022-11-01T05:21:46.845Z,1.48
2022-11-01T05:24:26.944Z,1.20
2022-11-01T05:26:53.751Z,1.35
2022-11-01T05:29:32.808Z,1.10
2022-11-01T05:32:00.598Z,1.42
2022-11-01T05:34:34.011Z,1.45
2022-11-01T05:37:07.963Z,1.60
2022-11-01T05:39:41.052Z,1.67
2022-11-01T05:42:08.314Z,1.50
2022-11-01T05:44:41.991Z,1.70
2022-11-01T05:47:10.336Z,1.60
2022-11-01T05:49:44.968Z,1.90
2022-11-01T05:52:11.786Z,1.50
2022-11-01T05:54:45.005Z,1.60
2022-11-01T05:57:11.787Z,1.60
2022-11-01T05:59:44.988Z,1.00
2022-11-01T06:02:16.377Z,1.30
2022-11-01T06:04:50.026Z,1.35
2022-11-01T06:07:16.861Z,1.45
2022-11-01T06:09:50.233Z,1.50
2022-11-01T06:12:17.093Z,1.45
2022-11-01T06:14:50.031Z,1.73
2022-11-01T06:17:17.134Z,1.20
2022-11-01T06:19:50.048Z,1.50
2022-11-01T06:22:33.045Z,2.00
2022-11-01T06:25:06.042Z,1.40
2022-11-01T06:27:33.418Z,1.98
2022-11-01T06:30:07.039Z,1.52
2022-11-01T06:32:40.027Z,2.35
2022-11-01T06:35:14.073Z,2.00
2022-11-01T06:37:40.961Z,2.13
2022-11-01T06:40:08.319Z,2.08
2022-11-01T06:42:46.665Z,2.22
2022-11-01T06:45:20.060Z,2.17
2022-11-01T06:47:54.097Z,1.85
2022-11-01T06:50:27.207Z,2.28
2022-11-01T06:53:00.219Z,1.88
2022-11-01T06:55:35.124Z,2.58
2022-11-01T06:58:06.468Z,2.30
2022-11-01T07:00:33.577Z,1.98
2022-11-01T07:03:17.138Z,1.90
2022-11-01T07:05:50.155Z,1.98
2022-11-01T07:08:17.078Z,2.25
2022-11-01T07:10:50.139Z,1.95
2022-11-01T07:13:17.519Z,2.03
2022-11-01T07:15:51.125Z,2.10
2022-11-01T07:18:24.144Z,2.00
2022-11-01T07:20:51.039Z,2.03
2022-11-01T07:23:29.139Z,2.40
2022-11-01T07:25:56.294Z,2.00
2022-11-01T07:28:24.005Z,2.38
2022-11-01T07:31:02.143Z,2.58
2022-11-01T07:33:36.160Z,2.30
2022-11-01T07:36:03.864Z,2.05
2022-11-01T07:38:40.239Z,2.60
2022-11-01T07:41:14.239Z,2.63
2022-11-01T07:43:42.541Z,2.45
2022-11-01T07:46:16.181Z,2.28
2022-11-01T07:48:51.251Z,2.70
2022-11-01T07:51:25.184Z,2.85
2022-11-01T07:53:52.138Z,2.30
2022-11-01T07:56:25.185Z,2.38
2022-11-01T07:58:52.156Z,2.15
2022-11-01T08:01:25.325Z,2.35
2022-11-01T08:03:52.270Z,2.55
2022-11-01T08:06:19.056Z,2.22
2022-11-01T08:08:53.339Z,2.50
2022-11-01T08:11:20.234Z,2.58
2022-11-01T08:14:02.754Z,2.20
2022-11-01T08:16:32.013Z,2.30
2022-11-01T08:19:05.224Z,2.20
2022-11-01T08:21:32.018Z,2.30
2022-11-01T08:23:59.413Z,2.60
2022-11-01T08:26:33.247Z,1.92
2022-11-01T08:29:00.211Z,2.03
2022-11-01T08:31:33.305Z,2.10
2022-11-01T08:34:00.168Z,2.05
2022-11-01T08:36:33.255Z,2.70
2022-11-01T08:39:00.899Z,1.83
2022-11-01T08:41:37.605Z,2.30
2022-11-01T08:44:11.260Z,1.70
2022-11-01T08:46:38.081Z,2.58
2022-11-01T08:49:11.293Z,2.45
2022-11-01T08:51:38.421Z,2.60
2022-11-01T08:54:14.281Z,2.65
2022-11-01T08:56:47.298Z,2.50
2022-11-01T08:59:20.321Z,2.10
2022-11-01T09:01:47.391Z,2.30
2022-11-01T09:04:14.588Z,2.85
2022-11-01T09:06:48.340Z,2.10
2022-11-01T09:09:15.283Z,2.20
2022-11-01T09:11:48.315Z,2.22
2022-11-01T09:14:15.074Z,2.55
2022-11-01T09:16:41.841Z,2.63
2022-11-01T09:19:15.322Z,2.55
2022-11-01T09:21:52.315Z,2.63
2022-11-01T09:24:19.105Z,2.47
2022-11-01T09:26:46.084Z,2.60
2022-11-01T09:29:23.449Z,2.50
2022-11-01T09:32:01.366Z,2.10
2022-11-01T09:34:36.311Z,3.00
2022-11-01T09:37:03.405Z,2.85
2022-11-01T09:39:36.398Z,2.47
2022-11-01T09:42:13.355Z,2.85
2022-11-01T09:44:44.002Z,2.42
2022-11-01T09:47:24.382Z,2.42
2022-11-01T09:50:04.554Z,2.20
2022-11-01T09:52:38.360Z,3.10
2022-11-01T09:55:14.504Z,2.92
2022-11-01T09:57:54.371Z,2.65
2022-11-01T10:00:21.798Z,2.50
2022-11-01T10:02:52.664Z,2.45
2022-11-01T10:05:44.383Z,2.08
2022-11-01T10:08:29.243Z,2.97
2022-11-01T10:11:41.421Z,2.70
2022-11-01T10:14:54.669Z,2.40
2022-11-01T10:17:55.490Z,2.95
2022-11-01T10:20:34.420Z,2.70
2022-11-01T10:23:04.842Z,2.30
2022-11-01T10:25:45.401Z,2.50
2022-11-01T10:28:18.761Z,3.03
2022-11-01T10:30:57.430Z,2.35
2022-11-01T10:33:30.553Z,2.47
2022-11-01T10:36:17.497Z,2.42
2022-11-01T10:44:31.703Z,2.15
2022-11-01T10:47:07.486Z,2.15
2022-11-01T10:50:05.358Z,2.05
2022-11-01T10:52:37.461Z,2.45
2022-11-01T10:55:12.432Z,2.47
2022-11-01T10:57:53.480Z,1.90
2022-11-01T11:00:21.865Z,2.58
2022-11-01T11:03:05.567Z,2.83
2022-11-01T11:05:33.321Z,2.38
2022-11-01T11:08:29.497Z,1.90
2022-11-01T11:11:01.942Z,2.30
2022-11-01T11:13:42.482Z,2.60
2022-11-01T11:16:28.477Z,2.67
2022-11-01T11:19:28.548Z,2.35
2022-11-01T11:21:56.816Z,2.42
2022-11-01T11:24:28.439Z,2.75
2022-11-01T11:27:03.589Z,2.15
2022-11-01T11:29:55.504Z,2.55
2022-11-01T11:32:34.389Z,2.85
2022-11-01T11:35:26.525Z,2.00
2022-11-01T11:38:06.883Z,2.58
2022-11-01T11:40:42.787Z,2.20
2022-11-01T11:43:37.552Z,2.17
2022-11-01T11:46:08.892Z,2.15
2022-11-01T11:48:58.549Z,2.03
2022-11-01T11:51:35.533Z,1.75
2022-11-01T11:54:28.551Z,2.17
2022-11-01T11:57:29.525Z,2.67
2022-11-01T12:00:05.104Z,2.30
2022-11-01T12:02:45.596Z,1.70
2022-11-01T12:05:19.013Z,2.15
2022-11-01T12:07:58.590Z,2.05
2022-11-01T12:10:52.570Z,2.45
2022-11-01T12:13:41.186Z,2.05
2022-11-01T12:19:07.747Z,1.92
2022-11-01T12:21:43.035Z,1.60
2022-11-01T12:24:30.704Z,1.88
2022-11-01T12:27:13.588Z,1.63
2022-11-01T12:30:11.577Z,1.80
2022-11-01T12:32:48.569Z,1.90
2022-11-01T12:35:33.647Z,1.80
2022-11-01T12:38:06.201Z,1.67
2022-11-01T12:40:48.736Z,1.67
2022-11-01T12:46:04.618Z,1.40
2022-11-01T12:48:40.232Z,1.52
2022-11-01T12:51:35.703Z,1.60
2022-11-01T12:54:12.283Z,1.70
2022-11-01T12:56:46.663Z,2.30
2022-11-01T12:59:19.123Z,1.77
2022-11-01T13:02:00.817Z,1.33
2022-11-01T13:05:03.148Z,1.50
2022-11-01T13:07:46.708Z,1.38
2022-11-01T13:10:36.446Z,1.60
2022-11-01T13:13:26.721Z,1.20
2022-11-01T13:16:17.078Z,1.48
2022-11-01T13:19:07.692Z,1.40
2022-11-01T13:21:53.614Z,1.48
2022-11-01T13:24:35.647Z,1.33
2022-11-01T13:27:29.691Z,1.55
2022-11-01T13:30:03.689Z,1.40
2022-11-01T13:32:59.159Z,1.38
2022-11-01T13:35:46.695Z,1.70
2022-11-01T13:38:47.473Z,1.42
2022-11-01T13:41:41.711Z,1.60
2022-11-01T13:44:25.432Z,1.80
2022-11-01T13:47:20.720Z,1.60
2022-11-01T13:50:20.033Z,1.50
2022-11-01T13:53:09.788Z,2.03
2022-11-01T13:55:55.122Z,1.50
2022-11-01T13:58:30.740Z,1.70
2022-11-01T14:00:57.589Z,1.55
2022-11-01T14:03:37.819Z,1.20
2022-11-01T14:06:11.351Z,1.60
2022-11-01T14:08:45.768Z,1.90
2022-11-01T14:11:34.208Z,1.30
2022-11-01T14:14:27.817Z,1.90
2022-11-01T14:17:20.493Z,1.02
2022-11-01T14:19:56.777Z,1.40
2022-11-01T14:22:33.801Z,1.65
2022-11-01T14:25:11.088Z,1.17
2022-11-01T14:27:52.144Z,1.40
2022-11-01T14:30:24.438Z,1.27
2022-11-01T14:35:41.775Z,1.30
2022-11-01T14:38:15.988Z,1.63
2022-11-01T14:41:08.879Z,1.48
2022-11-01T14:43:40.960Z,1.33
2022-11-01T14:46:19.820Z,1.50
2022-11-01T14:48:59.923Z,1.42
2022-11-01T14:51:40.852Z,1.38
2022-11-01T14:54:33.807Z,1.33
2022-11-01T14:57:07.860Z,1.20
2022-11-01T14:59:34.695Z,1.58
2022-11-01T15:02:05.227Z,1.70
2022-11-01T15:04:47.854Z,1.73
2022-11-01T15:10:14.294Z,1.42
2022-11-01T15:12:59.871Z,1.70
2022-11-01T15:15:39.838Z,1.52
2022-11-01T15:18:13.460Z,1.85
2022-11-01T15:20:49.866Z,2.03
2022-11-01T15:23:29.071Z,2.03
2022-11-01T15:26:04.937Z,1.60
2022-11-01T15:28:43.131Z,1.77
2022-11-01T15:31:18.066Z,1.98
2022-11-01T15:34:33.900Z,1.92
2022-11-01T15:37:32.993Z,1.40
2022-11-01T15:40:07.847Z,1.70
2022-11-01T15:42:34.883Z,1.67
2022-11-01T15:45:35.921Z,1.70
2022-11-01T15:48:18.900Z,1.83
2022-11-01T15:50:53.478Z,1.75
2022-11-01T15:53:30.984Z,2.17
2022-11-01T15:56:29.690Z,1.63
2022-11-01T15:59:06.919Z,1.58
2022-11-01T16:01:33.819Z,1.27
2022-11-01T16:04:12.989Z,1.45
2022-11-01T16:06:42.424Z,1.38
2022-11-01T16:09:45.956Z,1.60
2022-11-01T16:12:23.005Z,1.38
2022-11-01T16:15:05.977Z,1.90
2022-11-01T16:17:38.627Z,1.27
2022-11-01T16:20:53.953Z,1.85
2022-11-01T16:23:35.204Z,1.92
2022-11-01T16:26:15.118Z,1.48
2022-11-01T16:28:52.973Z,1.88
2022-11-01T16:31:29.054Z,1.73
2022-11-01T16:33:57.296Z,1.70
2022-11-01T16:36:42.963Z,1.30
2022-11-01T16:39:37.950Z,1.73
2022-11-01T16:42:09.605Z,1.60
2022-11-01T16:44:43.033Z,2.38
2022-11-01T16:47:23.012Z,2.20
2022-11-01T16:49:51.846Z,1.65
2022-11-01T16:52:26.020Z,1.90
2022-11-01T16:54:53.003Z,1.90
2022-11-01T16:57:33.116Z,2.22
2022-11-01T17:00:01.572Z,1.52
2022-11-01T17:02:36.079Z,1.88
2022-11-01T17:05:07.790Z,2.00
2022-11-01T17:07:41.026Z,1.58
2022-11-01T17:10:19.721Z,1.70
2022-11-01T17:12:53.023Z,1.55
2022-11-01T17:15:20.010Z,1.42
2022-11-01T17:17:55.025Z,2.08
2022-11-01T17:20:27.709Z,2.13
2022-11-01T17:23:02.201Z,1.77
2022-11-01T17:25:30.318Z,1.80
2022-11-01T17:28:04.281Z,2.20
2022-11-01T17:30:32.419Z,2.72
2022-11-01T17:33:06.029Z,1.85
2022-11-01T17:35:34.123Z,2.35
2022-11-01T17:38:08.158Z,2.08
2022-11-01T17:40:36.320Z,1.67
2022-11-01T17:43:10.167Z,1.95
2022-11-01T17:45:37.220Z,2.00
2022-11-01T17:48:04.580Z,1.50
2022-11-01T17:50:40.182Z,1.92
2022-11-01T17:53:15.086Z,1.73
2022-11-01T17:55:42.865Z,1.92
2022-11-01T17:58:17.219Z,2.10
2022-11-01T18:00:44.022Z,2.33
2022-11-01T18:03:10.962Z,1.77
2022-11-01T18:05:44.124Z,1.73
2022-11-01T18:08:27.108Z,2.10
2022-11-01T18:11:15.470Z,1.90
2022-11-01T18:14:03.839Z,2.40
2022-11-01T18:16:50.690Z,2.17
2022-11-01T18:19:33.149Z,2.00
2022-11-01T18:25:10.130Z,2.10
2022-11-01T18:27:38.671Z,2.05
2022-11-01T18:30:21.162Z,1.83
2022-11-01T18:35:37.284Z,2.35
2022-11-01T18:38:27.225Z,2.55
2022-11-01T18:40:57.401Z,2.20
2022-11-01T18:43:32.227Z,2.00
2022-11-01T18:48:54.330Z,2.28
2022-11-01T18:51:29.855Z,2.20
2022-11-01T18:54:17.332Z,2.10
2022-11-01T18:56:49.488Z,1.83
2022-11-01T18:59:36.436Z,2.75
2022-11-01T19:02:12.800Z,1.73
2022-11-01T19:04:51.333Z,1.80
2022-11-01T19:07:21.610Z,1.65
2022-11-01T19:10:02.164Z,1.70
2022-11-01T19:12:48.182Z,1.67
2022-11-01T19:15:30.256Z,2.00
2022-11-01T19:18:00.380Z,2.03
2022-11-01T19:20:40.222Z,1.48
2022-11-01T19:23:15.072Z,1.95
2022-11-01T19:25:52.521Z,2.25
2022-11-01T19:28:33.391Z,2.25
2022-11-01T19:31:22.434Z,2.30
2022-11-01T19:33:55.406Z,2.40
2022-11-01T19:36:32.301Z,2.17
2022-11-01T19:39:00.065Z,2.17
2022-11-01T19:41:37.236Z,2.35
2022-11-01T19:44:15.024Z,1.75
2022-11-01T19:46:48.326Z,1.80
2022-11-01T19:49:26.976Z,1.95
2022-11-01T19:52:09.487Z,2.15
2022-11-01T19:57:28.293Z,2.47
2022-11-01T20:00:20.233Z,3.20
2022-11-01T20:02:56.282Z,2.40
2022-11-01T20:05:25.815Z,1.88
2022-11-01T20:08:08.402Z,1.63
2022-11-01T20:10:35.223Z,2.10
2022-11-01T20:13:02.341Z,1.50
2022-11-01T20:15:36.301Z,1.88
2022-11-01T20:18:09.618Z,1.80
2022-11-01T20:20:43.294Z,1.77
2022-11-01T20:23:26.282Z,2.00
2022-11-01T20:25:53.688Z,2.47
2022-11-01T20:28:27.453Z,2.63
2022-11-01T20:30:54.512Z,2.33
2022-11-01T20:33:21.470Z,2.20
2022-11-01T20:35:55.324Z,1.60
2022-11-01T20:38:22.411Z,2.03
2022-11-01T20:40:49.418Z,2.08
2022-11-01T20:43:22.373Z,1.90
2022-11-01T20:45:49.253Z,2.00
2022-11-01T20:48:25.343Z,1.95
2022-11-01T20:51:01.359Z,1.98
2022-11-01T20:53:34.343Z,2.47
2022-11-01T20:56:08.435Z,1.83
2022-11-01T20:58:41.699Z,2.08
2022-11-01T21:01:22.471Z,2.00
2022-11-01T21:03:58.388Z,2.05
2022-11-01T21:06:28.769Z,1.63
2022-11-01T21:09:04.407Z,1.90
2022-11-01T21:11:43.799Z,1.70
2022-11-01T21:14:42.389Z,1.92
2022-11-01T21:17:16.022Z,1.92
2022-11-01T21:19:51.560Z,1.42
2022-11-01T21:22:20.922Z,1.63
2022-11-01T21:24:58.488Z,1.60
2022-11-01T21:30:22.427Z,1.20
2022-11-01T21:32:51.096Z,1.23
2022-11-01T21:35:27.636Z,1.63
2022-11-01T21:37:55.115Z,1.58
2022-11-01T21:40:37.550Z,1.63
2022-11-01T21:43:13.731Z,1.50
2022-11-01T21:46:01.463Z,1.73
2022-11-01T21:48:35.517Z,1.40
2022-11-01T21:51:09.579Z,1.65
2022-11-01T21:53:37.447Z,1.60
2022-11-01T21:56:04.477Z,2.05
2022-11-01T21:58:37.438Z,1.40
2022-11-01T22:01:04.687Z,1.92
2022-11-01T22:03:38.470Z,1.45
2022-11-01T22:06:12.429Z,1.55
2022-11-01T22:08:45.631Z,2.25
2022-11-01T22:11:23.477Z,1.30
2022-11-01T22:13:50.623Z,1.17
2022-11-01T22:16:23.536Z,1.55
2022-11-01T22:18:50.453Z,1.58
2022-11-01T22:21:24.667Z,1.02
2022-11-01T22:23:51.942Z,0.98
2022-11-01T22:26:25.525Z,0.88
2022-11-01T22:28:52.811Z,1.00
2022-11-01T22:31:26.651Z,0.75
2022-11-01T22:33:54.952Z,0.63
2022-11-01T22:36:21.677Z,0.80
2022-11-01T22:38:55.524Z,0.90
2022-11-01T22:41:37.512Z,0.60
2022-11-01T22:44:13.722Z,0.80
2022-11-01T22:46:56.864Z,0.73
2022-11-01T22:49:36.979Z,0.73
2022-11-01T22:52:11.619Z,0.70
2022-11-01T22:54:42.533Z,0.55
2022-11-01T22:57:18.655Z,0.70
2022-11-01T22:59:52.653Z,0.73
2022-11-01T23:02:43.606Z,0.98
2022-11-01T23:05:10.494Z,0.77
2022-11-01T23:07:53.598Z,0.85
2022-11-01T23:10:30.726Z,0.70
2022-11-01T23:13:36.660Z,1.17
2022-11-01T23:16:19.216Z,1.27
2022-11-01T23:18:52.589Z,1.60
2022-11-01T23:21:27.609Z,1.17
2022-11-01T23:24:01.620Z,1.27
2022-11-01T23:26:30.643Z,1.45
2022-11-01T23:29:04.604Z,1.65
2022-11-01T23:31:31.420Z,1.40
2022-11-01T23:33:58.169Z,1.55
2022-11-01T23:36:34.566Z,1.50
2022-11-01T23:39:03.471Z,1.70
2022-11-01T23:41:44.603Z,1.75
2022-11-01T23:44:43.618Z,1.42
2022-11-01T23:47:41.546Z,1.60
2022-11-01T23:50:28.600Z,1.88
2022-11-01T23:53:04.949Z,1.73
2022-11-01T23:55:47.779Z,1.52
